createdAt,value
2022-12-06T00:01:34.770Z,7.74
2022-12-06T00:04:06.401Z,7.79
2022-12-06T00:06:45.271Z,7.82
2022-12-06T00:09:19.914Z,7.70
2022-12-06T00:11:48.110Z,7.69
2022-12-06T00:14:16.727Z,7.68
2022-12-06T00:16:45.081Z,7.65
2022-12-06T00:19:14.626Z,7.61
2022-12-06T00:21:43.083Z,7.56
2022-12-06T00:24:16.849Z,7.58
2022-12-06T00:26:46.728Z,7.68
2022-12-06T00:29:19.108Z,7.79
2022-12-06T00:31:47.082Z,7.77
2022-12-06T00:34:15.578Z,7.75
2022-12-06T00:36:43.810Z,7.79
2022-12-06T00:39:14.767Z,7.88
2022-12-06T00:41:43.466Z,7.90
2022-12-06T00:44:11.769Z,7.92
2022-12-06T00:46:40.276Z,7.89
2022-12-06T00:49:09.267Z,7.87
2022-12-06T00:51:37.903Z,8.00
2022-12-06T00:54:07.218Z,8.06
2022-12-06T00:56:36.741Z,8.04
2022-12-06T00:59:06.585Z,8.05
2022-12-06T01:01:36.326Z,8.06
2022-12-06T01:04:06.826Z,8.12
2022-12-06T01:06:36.440Z,8.08
2022-12-06T01:09:08.194Z,8.13
2022-12-06T01:11:36.618Z,8.16
2022-12-06T01:14:04.464Z,8.16
2022-12-06T01:16:32.631Z,8.19
2022-12-06T01:19:05.500Z,8.19
2022-12-06T01:21:33.575Z,8.12
2022-12-06T01:24:01.277Z,8.04
2022-12-06T01:26:34.781Z,7.94
2022-12-06T01:29:04.068Z,7.78
2022-12-06T01:31:38.202Z,7.79
2022-12-06T01:34:13.592Z,7.86
2022-12-06T01:36:41.648Z,7.83
2022-12-06T01:39:10.808Z,7.66
2022-12-06T01:41:39.689Z,7.66
2022-12-06T01:44:28.099Z,7.66
2022-12-06T01:46:55.901Z,7.57
2022-12-06T01:49:29.630Z,7.50
2022-12-06T01:52:07.024Z,7.43
2022-12-06T01:54:34.876Z,7.61
2022-12-06T01:57:07.038Z,7.64
2022-12-06T01:59:35.781Z,7.78
2022-12-06T02:02:03.860Z,7.85
2022-12-06T02:04:32.218Z,7.68
2022-12-06T02:07:01.141Z,7.43
2022-12-06T02:09:29.763Z,7.60
2022-12-06T02:11:57.507Z,7.68
2022-12-06T02:14:31.593Z,7.90
2022-12-06T02:17:15.556Z,8.19
2022-12-06T02:20:13.634Z,8.20
2022-12-06T02:23:15.594Z,8.07
2022-12-06T02:26:11.639Z,8.13
2022-12-06T02:29:08.568Z,8.13
2022-12-06T02:31:42.680Z,8.18
2022-12-06T02:34:18.133Z,8.16
2022-12-06T02:36:55.711Z,8.26
2022-12-06T02:39:35.054Z,8.33
2022-12-06T02:42:08.434Z,8.42
2022-12-06T02:44:41.238Z,8.51
2022-12-06T02:47:11.860Z,8.44
2022-12-06T02:49:46.680Z,8.46
2022-12-06T02:52:15.781Z,8.52
2022-12-06T02:54:46.278Z,8.41
2022-12-06T02:57:14.185Z,8.37
2022-12-06T02:59:51.726Z,8.44
2022-12-06T03:02:22.137Z,8.48
2022-12-06T03:05:18.238Z,8.39
2022-12-06T03:07:48.120Z,8.42
2022-12-06T03:10:40.896Z,8.46
2022-12-06T03:13:18.053Z,8.33
2022-12-06T03:15:59.211Z,7.97
2022-12-06T03:18:46.141Z,7.88
2022-12-06T03:21:21.569Z,7.97
2022-12-06T03:23:51.663Z,7.88
2022-12-06T03:26:24.070Z,7.84
2022-12-06T03:28:56.026Z,7.91
2022-12-06T03:31:25.662Z,7.94
2022-12-06T03:33:59.622Z,7.85
2022-12-06T03:36:29.975Z,7.81
2022-12-06T03:39:01.037Z,7.94
2022-12-06T03:41:34.025Z,7.72
2022-12-06T03:44:01.929Z,7.73
2022-12-06T03:46:44.448Z,7.77
2022-12-06T03:49:17.441Z,7.82
2022-12-06T03:51:46.190Z,7.91
2022-12-06T03:54:14.050Z,8.13
2022-12-06T03:56:41.969Z,8.23
2022-12-06T03:59:11.180Z,8.06
2022-12-06T04:01:39.426Z,7.92
2022-12-06T04:04:07.680Z,7.87
2022-12-06T04:06:35.684Z,7.88
2022-12-06T04:09:22.245Z,8.01
2022-12-06T04:11:50.730Z,8.08
2022-12-06T04:14:18.763Z,7.89
2022-12-06T04:17:16.116Z,7.69
2022-12-06T04:19:48.076Z,7.44
2022-12-06T04:22:37.074Z,7.39
2022-12-06T04:25:05.140Z,7.38
2022-12-06T04:27:51.572Z,7.51
2022-12-06T04:30:38.184Z,7.56
2022-12-06T04:33:24.727Z,7.49
2022-12-06T04:36:15.099Z,7.34
2022-12-06T04:38:43.290Z,7.22
2022-12-06T04:41:12.205Z,7.28
2022-12-06T04:43:42.691Z,7.31
2022-12-06T04:46:13.132Z,7.40
2022-12-06T04:48:41.913Z,7.50
2022-12-06T04:51:13.163Z,7.29
2022-12-06T04:53:41.258Z,7.38
2022-12-06T04:56:09.343Z,7.55
2022-12-06T04:58:37.225Z,7.70
2022-12-06T05:01:05.347Z,7.61
2022-12-06T05:03:33.394Z,7.62
2022-12-06T05:06:01.390Z,7.70
2022-12-06T05:08:29.123Z,7.79
2022-12-06T05:10:57.223Z,7.70
2022-12-06T05:13:25.299Z,7.56
2022-12-06T05:15:55.431Z,7.54
2022-12-06T05:18:25.049Z,7.42
2022-12-06T05:21:02.566Z,7.36
2022-12-06T05:23:30.406Z,7.44
2022-12-06T05:26:03.774Z,7.35
2022-12-06T05:28:31.849Z,7.43
2022-12-06T05:30:59.713Z,7.59
2022-12-06T05:33:28.350Z,7.70
2022-12-06T05:35:56.222Z,7.69
2022-12-06T05:38:24.478Z,7.60
2022-12-06T05:40:52.350Z,7.59
2022-12-06T05:43:20.120Z,7.53
2022-12-06T05:45:52.753Z,7.50
2022-12-06T05:48:20.637Z,7.39
2022-12-06T05:50:50.051Z,7.34
2022-12-06T05:53:18.071Z,7.36
2022-12-06T05:55:46.608Z,7.36
2022-12-06T05:58:17.334Z,7.36
2022-12-06T06:00:49.780Z,7.37
2022-12-06T06:03:18.215Z,7.30
2022-12-06T06:05:50.459Z,7.40
2022-12-06T06:08:18.652Z,7.54
2022-12-06T06:10:46.689Z,7.39
2022-12-06T06:13:14.675Z,7.30
2022-12-06T06:15:42.545Z,7.28
2022-12-06T06:18:10.454Z,7.23
2022-12-06T06:20:38.291Z,7.09
2022-12-06T06:23:06.356Z,7.13
2022-12-06T06:25:34.125Z,7.16
2022-12-06T06:28:01.872Z,6.98
2022-12-06T06:30:29.748Z,7.08
2022-12-06T06:32:57.516Z,7.13
2022-12-06T06:35:25.438Z,7.22
2022-12-06T06:37:53.271Z,7.33
2022-12-06T06:40:22.075Z,7.36
2022-12-06T06:42:50.357Z,7.48
2022-12-06T06:45:19.876Z,7.41
2022-12-06T06:48:00.530Z,7.39
2022-12-06T06:50:28.526Z,7.35
2022-12-06T06:53:03.253Z,7.39
2022-12-06T06:55:31.643Z,7.38
2022-12-06T06:57:59.878Z,7.42
2022-12-06T07:00:28.427Z,7.38
2022-12-06T07:02:59.640Z,7.28
2022-12-06T07:05:27.815Z,7.22
2022-12-06T07:07:57.931Z,7.34
2022-12-06T07:10:27.314Z,7.22
2022-12-06T07:12:55.392Z,7.09
2022-12-06T07:15:23.213Z,7.15
2022-12-06T07:17:51.635Z,7.06
2022-12-06T07:20:19.845Z,6.94
2022-12-06T07:22:47.628Z,6.87
2022-12-06T07:25:16.184Z,6.94
2022-12-06T07:27:43.978Z,6.95
2022-12-06T07:30:16.897Z,6.88
2022-12-06T07:32:45.144Z,6.76
2022-12-06T07:35:12.950Z,6.79
2022-12-06T07:37:44.519Z,6.87
2022-12-06T07:40:14.380Z,6.92
2022-12-06T07:43:01.022Z,6.77
2022-12-06T07:45:29.594Z,6.68
2022-12-06T07:47:57.905Z,6.69
2022-12-06T07:50:25.961Z,6.68
2022-12-06T07:52:53.936Z,6.68
2022-12-06T07:55:21.752Z,6.80
2022-12-06T07:57:50.750Z,6.82
2022-12-06T08:00:19.630Z,6.79
2022-12-06T08:02:47.663Z,6.81
2022-12-06T08:05:15.897Z,6.70
2022-12-06T08:07:44.356Z,6.70
2022-12-06T08:10:12.418Z,6.75
2022-12-06T08:12:40.322Z,6.86
2022-12-06T08:15:13.072Z,6.85
2022-12-06T08:17:42.193Z,6.78
2022-12-06T08:20:10.990Z,6.69
2022-12-06T08:22:38.824Z,6.85
2022-12-06T08:25:07.449Z,6.93
2022-12-06T08:27:35.295Z,6.93
2022-12-06T08:30:03.809Z,6.85
2022-12-06T08:32:32.421Z,7.00
2022-12-06T08:35:00.280Z,6.94
2022-12-06T08:37:28.944Z,6.91
2022-12-06T08:39:57.187Z,6.95
2022-12-06T08:42:25.528Z,7.05
2022-12-06T08:44:54.545Z,7.18
2022-12-06T08:47:22.430Z,7.38
2022-12-06T08:49:51.668Z,7.35
2022-12-06T08:52:19.616Z,7.26
2022-12-06T08:54:48.130Z,7.18
2022-12-06T08:57:16.195Z,7.26
2022-12-06T08:59:44.162Z,7.28
2022-12-06T09:02:12.733Z,7.25
2022-12-06T09:04:40.846Z,7.19
2022-12-06T09:07:11.898Z,7.23
2022-12-06T09:09:41.021Z,7.24
2022-12-06T09:12:08.936Z,7.24
2022-12-06T09:14:37.380Z,7.25
2022-12-06T09:17:06.519Z,7.25
2022-12-06T09:19:34.944Z,7.07
2022-12-06T09:22:02.901Z,6.88
2022-12-06T09:24:31.051Z,6.89
2022-12-06T09:26:59.079Z,6.84
2022-12-06T09:29:27.290Z,6.93
2022-12-06T09:31:55.886Z,7.00
2022-12-06T09:34:24.074Z,7.00
2022-12-06T09:37:03.230Z,7.09
2022-12-06T09:39:37.735Z,7.19
2022-12-06T09:42:12.353Z,7.06
2022-12-06T09:44:46.710Z,6.92
2022-12-06T09:47:17.731Z,6.70
2022-12-06T09:50:01.116Z,6.87
2022-12-06T09:52:47.244Z,6.89
2022-12-06T09:55:36.768Z,6.80
2022-12-06T09:58:42.407Z,7.06
2022-12-06T10:01:30.672Z,7.13
2022-12-06T10:04:43.689Z,7.03
2022-12-06T10:07:32.595Z,6.72
2022-12-06T10:10:03.992Z,6.66
2022-12-06T10:12:58.165Z,6.70
2022-12-06T10:15:51.789Z,6.70
2022-12-06T10:18:31.626Z,6.59
2022-12-06T10:21:16.560Z,6.70
2022-12-06T10:24:01.824Z,6.79
2022-12-06T10:26:52.003Z,6.91
2022-12-06T10:29:29.497Z,6.97
2022-12-06T10:32:15.050Z,6.89
2022-12-06T10:35:18.436Z,6.93
2022-12-06T10:38:34.039Z,6.81
2022-12-06T10:44:32.387Z,6.72
2022-12-06T10:47:12.713Z,6.65
2022-12-06T10:49:54.935Z,6.74
2022-12-06T10:52:45.180Z,6.69
2022-12-06T10:55:26.718Z,6.73
2022-12-06T10:58:18.682Z,6.73
2022-12-06T11:01:06.023Z,6.82
2022-12-06T11:03:49.910Z,6.80
2022-12-06T11:06:33.891Z,6.66
2022-12-06T11:09:38.887Z,6.76
2022-12-06T11:12:31.634Z,6.87
2022-12-06T11:15:35.968Z,6.88
2022-12-06T11:18:10.829Z,6.94
2022-12-06T11:21:00.053Z,6.84
2022-12-06T11:23:39.660Z,6.87
2022-12-06T11:26:13.353Z,6.89
2022-12-06T11:28:43.485Z,6.83
2022-12-06T11:31:26.358Z,6.90
2022-12-06T11:33:54.255Z,7.31
2022-12-06T11:36:23.730Z,7.51
2022-12-06T11:38:50.699Z,7.56
2022-12-06T11:41:23.678Z,7.59
2022-12-06T11:43:51.773Z,7.26
2022-12-06T11:46:18.431Z,6.95
2022-12-06T11:48:47.001Z,7.00
2022-12-06T11:51:18.458Z,6.90
2022-12-06T11:54:03.196Z,6.81
2022-12-06T11:56:34.130Z,6.72
2022-12-06T11:59:30.125Z,6.75
2022-12-06T12:02:00.243Z,6.52
2022-12-06T12:04:38.204Z,6.60
2022-12-06T12:07:11.120Z,6.56
2022-12-06T12:09:57.755Z,6.65
2022-12-06T12:13:05.460Z,6.66
2022-12-06T12:15:33.178Z,6.51
2022-12-06T12:18:01.128Z,6.54
2022-12-06T12:20:31.101Z,6.67
2022-12-06T12:23:06.650Z,6.65
2022-12-06T12:25:35.916Z,6.74
2022-12-06T12:28:23.877Z,6.70
2022-12-06T12:30:56.528Z,6.79
2022-12-06T12:33:27.970Z,6.73
2022-12-06T12:36:16.523Z,6.76
2022-12-06T12:38:52.782Z,6.61
2022-12-06T12:41:30.612Z,6.58
2022-12-06T12:44:37.044Z,6.55
2022-12-06T12:46:58.253Z,6.53
2022-12-06T12:49:34.044Z,6.37
2022-12-06T12:52:03.852Z,6.52
2022-12-06T12:54:33.745Z,6.54
2022-12-06T12:57:06.664Z,6.50
2022-12-06T12:59:39.488Z,6.34
2022-12-06T13:02:26.898Z,6.51
2022-12-06T13:07:51.894Z,6.43
2022-12-06T13:10:26.999Z,6.48
2022-12-06T13:13:00.490Z,6.55
2022-12-06T13:15:46.526Z,6.48
2022-12-06T13:18:37.855Z,6.58
2022-12-06T13:21:20.197Z,6.71
2022-12-06T13:23:49.547Z,6.61
2022-12-06T13:26:26.084Z,6.57
2022-12-06T13:28:56.848Z,6.53
2022-12-06T13:31:29.104Z,6.49
2022-12-06T13:34:03.991Z,6.30
2022-12-06T13:36:34.340Z,6.20
2022-12-06T13:39:32.341Z,6.16
2022-12-06T13:42:17.436Z,6.19
2022-12-06T13:44:47.174Z,6.27
2022-12-06T13:47:26.152Z,6.36
2022-12-06T13:49:59.742Z,6.37
2022-12-06T13:52:42.031Z,6.35
2022-12-06T13:55:24.002Z,6.36
2022-12-06T13:57:58.965Z,6.20
2022-12-06T14:00:32.269Z,6.13
2022-12-06T14:03:04.143Z,6.02
2022-12-06T14:06:14.681Z,6.00
2022-12-06T14:08:50.932Z,5.83
2022-12-06T14:11:44.896Z,5.78
2022-12-06T14:14:18.119Z,5.83
2022-12-06T14:16:52.126Z,5.70
2022-12-06T14:19:22.170Z,5.67
2022-12-06T14:21:57.911Z,5.88
2022-12-06T14:24:30.542Z,5.85
2022-12-06T14:27:05.112Z,5.82
2022-12-06T14:29:32.452Z,5.82
2022-12-06T14:31:59.973Z,5.82
2022-12-06T14:34:30.297Z,5.79
2022-12-06T14:36:59.320Z,5.94
2022-12-06T14:39:28.754Z,5.94
2022-12-06T14:42:21.411Z,5.88
2022-12-06T14:45:01.757Z,5.86
2022-12-06T14:47:29.377Z,5.79
2022-12-06T14:50:19.448Z,5.88
2022-12-06T14:53:16.308Z,5.87
2022-12-06T14:55:57.104Z,5.98
2022-12-06T14:58:28.334Z,6.03
2022-12-06T15:01:00.312Z,5.97
2022-12-06T15:03:31.659Z,5.97
2022-12-06T15:06:16.876Z,5.90
2022-12-06T15:08:55.097Z,5.91
2022-12-06T15:11:47.648Z,5.96
2022-12-06T15:14:19.830Z,5.84
2022-12-06T15:17:09.707Z,5.78
2022-12-06T15:19:43.790Z,5.71
2022-12-06T15:22:24.996Z,5.74
2022-12-06T15:24:55.893Z,5.85
2022-12-06T15:27:26.393Z,5.89
2022-12-06T15:29:54.717Z,5.89
2022-12-06T15:32:24.827Z,5.91
2022-12-06T15:34:52.714Z,6.06
2022-12-06T15:40:13.745Z,6.05
2022-12-06T15:42:40.461Z,6.08
2022-12-06T15:45:14.739Z,6.03
2022-12-06T15:47:41.459Z,5.98
2022-12-06T15:50:18.036Z,6.01
2022-12-06T15:52:46.799Z,6.20
2022-12-06T15:55:19.305Z,6.15
2022-12-06T15:57:50.279Z,6.08
2022-12-06T16:00:20.254Z,6.08
2022-12-06T16:02:49.023Z,6.05
2022-12-06T16:05:18.065Z,6.11
2022-12-06T16:07:44.990Z,6.09
2022-12-06T16:10:12.147Z,6.14
2022-12-06T16:12:57.938Z,6.08
2022-12-06T16:15:24.492Z,5.81
2022-12-06T16:17:51.908Z,5.69
2022-12-06T16:20:30.502Z,5.76
2022-12-06T16:23:56.536Z,5.80
2022-12-06T16:26:20.177Z,5.67
2022-12-06T16:28:46.904Z,5.56
2022-12-06T16:31:13.947Z,5.46
2022-12-06T16:33:40.965Z,5.53
2022-12-06T16:36:28.105Z,5.75
2022-12-06T16:38:56.927Z,5.72
2022-12-06T16:41:31.632Z,5.48
2022-12-06T16:44:00.223Z,5.43
2022-12-06T16:46:31.586Z,5.42
2022-12-06T16:49:16.044Z,5.33
2022-12-06T16:51:52.055Z,5.25
2022-12-06T16:54:21.716Z,5.36
2022-12-06T16:56:49.605Z,5.31
2022-12-06T16:59:26.953Z,5.29
2022-12-06T17:01:54.770Z,5.13
2022-12-06T17:04:22.153Z,5.14
2022-12-06T17:06:49.303Z,5.19
2022-12-06T17:09:16.373Z,5.07
2022-12-06T17:12:03.276Z,5.23
2022-12-06T17:14:30.545Z,5.15
2022-12-06T17:16:59.039Z,5.17
2022-12-06T17:19:28.303Z,5.27
2022-12-06T17:21:58.979Z,5.36
2022-12-06T17:24:26.642Z,5.31
2022-12-06T17:26:54.562Z,5.26
2022-12-06T17:29:22.924Z,5.32
2022-12-06T17:31:50.505Z,5.36
2022-12-06T17:34:19.311Z,5.39
2022-12-06T17:36:47.464Z,5.48
2022-12-06T17:39:19.759Z,5.35
2022-12-06T17:42:05.575Z,5.37
2022-12-06T17:44:35.831Z,5.32
2022-12-06T17:47:02.889Z,5.33
2022-12-06T17:49:29.566Z,5.34
2022-12-06T17:51:57.113Z,5.37
2022-12-06T17:54:24.190Z,5.51
2022-12-06T17:56:53.459Z,5.61
2022-12-06T17:59:25.914Z,5.65
2022-12-06T18:04:43.508Z,5.66
2022-12-06T18:07:11.793Z,5.68
2022-12-06T18:09:39.025Z,5.70
2022-12-06T18:12:08.625Z,6.03
2022-12-06T18:14:35.620Z,5.83
2022-12-06T18:17:02.746Z,5.63
2022-12-06T18:19:30.725Z,5.63
2022-12-06T18:21:58.210Z,5.50
2022-12-06T18:24:29.262Z,5.66
2022-12-06T18:27:00.869Z,5.64
2022-12-06T18:29:27.729Z,5.60
2022-12-06T18:31:54.588Z,5.59
2022-12-06T18:34:21.625Z,5.59
2022-12-06T18:36:48.496Z,5.58
2022-12-06T18:39:23.567Z,5.50
2022-12-06T18:41:52.017Z,5.37
2022-12-06T18:44:19.483Z,5.30
2022-12-06T18:46:46.406Z,5.40
2022-12-06T18:49:13.774Z,5.40
2022-12-06T18:51:41.011Z,5.41
2022-12-06T18:54:13.160Z,5.28
2022-12-06T18:56:44.652Z,5.25
2022-12-06T18:59:12.691Z,5.15
2022-12-06T19:01:41.269Z,5.10
2022-12-06T19:04:15.419Z,5.08
2022-12-06T19:06:43.253Z,5.01
2022-12-06T19:09:14.017Z,4.99
2022-12-06T19:11:43.451Z,5.02
2022-12-06T19:14:11.600Z,4.90
2022-12-06T19:16:44.341Z,4.92
2022-12-06T19:19:16.477Z,4.89
2022-12-06T19:21:49.575Z,4.88
2022-12-06T19:24:22.793Z,4.79
2022-12-06T19:26:51.186Z,4.81
2022-12-06T19:29:18.929Z,4.77
2022-12-06T19:31:46.373Z,4.83
2022-12-06T19:34:19.045Z,4.77
2022-12-06T19:36:48.806Z,4.88
2022-12-06T19:39:19.009Z,5.02
2022-12-06T19:42:06.730Z,4.99
2022-12-06T19:44:34.099Z,5.07
2022-12-06T19:47:02.199Z,5.05
2022-12-06T19:49:31.430Z,5.14
2022-12-06T19:52:06.168Z,5.07
2022-12-06T19:54:36.989Z,4.98
2022-12-06T19:57:05.559Z,5.01
2022-12-06T19:59:36.798Z,4.96
2022-12-06T20:02:06.924Z,4.98
2022-12-06T20:04:40.217Z,5.04
2022-12-06T20:07:09.875Z,5.01
2022-12-06T20:09:39.537Z,5.00
2022-12-06T20:12:08.960Z,5.02
2022-12-06T20:14:48.254Z,5.09
2022-12-06T20:17:21.681Z,5.17
2022-12-06T20:19:49.538Z,5.09
2022-12-06T20:22:21.252Z,5.01
2022-12-06T20:24:48.857Z,5.00
2022-12-06T20:27:16.283Z,5.07
2022-12-06T20:29:43.425Z,5.25
2022-12-06T20:32:10.922Z,5.24
2022-12-06T20:34:38.853Z,5.21
2022-12-06T20:37:06.630Z,5.21
2022-12-06T20:39:36.999Z,5.07
2022-12-06T20:42:05.758Z,5.00
2022-12-06T20:44:33.569Z,4.90
2022-12-06T20:47:01.228Z,4.70
2022-12-06T20:49:28.204Z,4.82
2022-12-06T20:51:56.025Z,4.86
2022-12-06T20:54:23.509Z,4.89
2022-12-06T20:56:52.453Z,4.95
2022-12-06T20:59:20.058Z,4.90
2022-12-06T21:01:47.364Z,4.88
2022-12-06T21:04:17.041Z,4.84
2022-12-06T21:06:43.620Z,4.90
2022-12-06T21:09:10.643Z,4.90
2022-12-06T21:11:37.960Z,4.96
2022-12-06T21:14:05.520Z,5.02
2022-12-06T21:16:33.279Z,4.99
2022-12-06T21:19:05.691Z,4.90
2022-12-06T21:21:34.795Z,4.89
2022-12-06T21:24:04.793Z,4.80
2022-12-06T21:26:32.341Z,4.83
2022-12-06T21:28:59.876Z,4.85
2022-12-06T21:31:31.029Z,4.86
2022-12-06T21:33:58.695Z,4.98
2022-12-06T21:36:25.670Z,4.95
2022-12-06T21:38:53.013Z,4.97
2022-12-06T21:41:20.808Z,4.92
2022-12-06T21:43:48.055Z,4.99
2022-12-06T21:46:19.701Z,4.99
2022-12-06T21:48:51.199Z,5.08
2022-12-06T21:51:18.776Z,4.96
2022-12-06T21:53:45.280Z,4.98
2022-12-06T21:56:16.200Z,5.06
2022-12-06T21:58:43.455Z,4.94
2022-12-06T22:01:13.573Z,5.07
2022-12-06T22:03:40.775Z,5.37
2022-12-06T22:06:10.463Z,5.36
2022-12-06T22:08:39.952Z,5.50
2022-12-06T22:11:08.975Z,5.41
2022-12-06T22:13:36.103Z,5.55
2022-12-06T22:16:07.906Z,5.47
2022-12-06T22:18:39.863Z,5.52
2022-12-06T22:21:16.002Z,5.37
2022-12-06T22:23:43.365Z,5.42
2022-12-06T22:26:13.416Z,5.47
2022-12-06T22:28:40.260Z,5.45
2022-12-06T22:31:16.442Z,5.50
2022-12-06T22:33:43.843Z,5.55
2022-12-06T22:36:11.154Z,5.53
2022-12-06T22:38:38.098Z,5.68
2022-12-06T22:41:05.656Z,5.81
2022-12-06T22:43:32.405Z,5.65
2022-12-06T22:46:04.196Z,5.61
2022-12-06T22:48:30.680Z,5.77
2022-12-06T22:51:31.359Z,5.79
2022-12-06T22:54:00.318Z,5.90
2022-12-06T22:56:28.690Z,5.88
2022-12-06T22:58:57.959Z,5.92
2022-12-06T23:01:27.177Z,5.86
2022-12-06T23:03:54.430Z,5.97
2022-12-06T23:06:23.712Z,5.76
2022-12-06T23:08:54.233Z,5.94
2022-12-06T23:11:29.833Z,5.92
2022-12-06T23:13:58.143Z,5.90
2022-12-06T23:16:27.202Z,5.78
2022-12-06T23:18:54.426Z,5.72
2022-12-06T23:21:32.044Z,5.72
2022-12-06T23:24:05.077Z,5.73
2022-12-06T23:26:36.873Z,5.77
2022-12-06T23:29:03.509Z,5.87
2022-12-06T23:31:32.763Z,5.92
2022-12-06T23:34:02.187Z,5.86
2022-12-06T23:36:30.598Z,5.78
2022-12-06T23:39:00.152Z,5.75
2022-12-06T23:41:29.055Z,5.67
2022-12-06T23:43:57.120Z,5.65
2022-12-06T23:46:29.271Z,5.62
2022-12-06T23:48:56.738Z,5.51
2022-12-06T23:51:26.022Z,5.19
2022-12-06T23:53:58.125Z,5.24
2022-12-06T23:56:28.032Z,5.02
2022-12-06T23:58:55.943Z,5.03
